Time;durP1;ratioP1;P1;durP2;ratioP2;P2;SDS_P1;SDS_P2;PMS_P1;PMS_P2;Temp;Humidity;BMP_temperature;BMP_pressure;BME280_temperature;BME280_humidity;BME280_pressure;Samples;Min_cycle;Max_cycle;Signal;HPM_P1;HPM_P2
2021/12/09 00:01:01;;;;;;;23.88;7.80;;;3.10;99.90;;;;;;4951419;28;20033;-60
2021/12/09 00:03:28;;;;;;;14.63;5.88;;;3.00;99.90;;;;;;4951503;28;20023;-61
2021/12/09 00:05:56;;;;;;;19.80;5.78;;;3.00;99.90;;;;;;4937115;29;20031;-60
2021/12/09 00:08:24;;;;;;;11.65;5.97;;;2.90;99.90;;;;;;4939525;28;20539;-60
2021/12/09 00:10:51;;;;;;;18.42;5.93;;;2.90;99.90;;;;;;4950942;29;20038;-59
2021/12/09 00:13:16;;;;;;;16.42;4.78;;;2.90;99.90;;;;;;4946965;28;20055;-59
2021/12/09 00:15:42;;;;;;;13.07;6.43;;;2.80;99.90;;;;;;4943987;28;20079;-59
2021/12/09 00:18:08;;;;;;;15.02;5.95;;;2.80;99.90;;;;;;4952709;28;20491;-60
2021/12/09 00:20:33;;;;;;;11.98;4.60;;;2.70;99.90;;;;;;4958388;28;20549;-59
2021/12/09 00:22:59;;;;;;;18.55;7.40;;;2.60;99.90;;;;;;4954978;28;20021;-59
2021/12/09 00:25:25;;;;;;;18.65;6.00;;;2.50;99.90;;;;;;4953046;28;20166;-58
2021/12/09 00:27:51;;;;;;;13.25;5.13;;;2.40;99.90;;;;;;4958189;28;20054;-60
2021/12/09 00:30:17;;;;;;;17.80;5.65;;;2.30;99.90;;;;;;4954754;28;20027;-59
2021/12/09 00:32:43;;;;;;;22.98;7.07;;;2.20;99.90;;;;;;4951898;28;20037;-60
2021/12/09 00:35:10;;;;;;;11.23;4.90;;;2.10;99.90;;;;;;4951746;29;20039;-59
2021/12/09 00:37:50;;;;;;;10.68;4.43;;;2.10;99.90;;;;;;4956037;28;20075;-61
2021/12/09 00:40:16;;;;;;;16.10;4.53;;;2.00;99.90;;;;;;4959173;28;20456;-61
2021/12/09 00:42:41;;;;;;;14.23;5.07;;;1.90;99.90;;;;;;4955872;28;20101;-60
2021/12/09 00:45:07;;;;;;;12.38;5.22;;;1.80;99.90;;;;;;4949963;29;20716;-60
2021/12/09 00:47:33;;;;;;;11.52;4.53;;;1.80;99.90;;;;;;4951785;28;20326;-59
2021/12/09 00:49:58;;;;;;;12.80;4.45;;;1.70;99.90;;;;;;4934239;29;20118;-60
2021/12/09 00:52:24;;;;;;;11.07;4.43;;;1.70;99.90;;;;;;4934228;29;20027;-58
2021/12/09 00:54:51;;;;;;;15.10;4.80;;;1.60;99.90;;;;;;4947399;28;20437;-58
2021/12/09 00:57:18;;;;;;;26.52;4.50;;;1.50;99.90;;;;;;4939830;29;20515;-59
2021/12/09 00:59:43;;;;;;;15.68;4.97;;;1.50;99.90;;;;;;4944884;28;20031;-58
2021/12/09 01:02:10;;;;;;;16.75;4.40;;;1.50;99.90;;;;;;4934754;29;20814;-60
2021/12/09 01:04:40;;;;;;;17.85;5.88;;;1.50;99.90;;;;;;4942705;28;20016;-59
2021/12/09 01:07:06;;;;;;;17.00;5.00;;;1.50;99.90;;;;;;4945754;28;20118;-59
2021/12/09 01:09:32;;;;;;;11.55;4.30;;;1.50;99.90;;;;;;4940600;29;20057;-59
2021/12/09 01:11:58;;;;;;;15.48;5.78;;;1.50;99.90;;;;;;4932832;29;20028;-58
2021/12/09 01:14:24;;;;;;;17.08;4.97;;;1.60;99.90;;;;;;4937524;29;20386;-59
2021/12/09 01:16:49;;;;;;;21.05;5.82;;;1.50;99.90;;;;;;4943875;29;20035;-58
2021/12/09 01:19:15;;;;;;;10.75;5.57;;;1.60;99.90;;;;;;4943948;29;20027;-60
2021/12/09 01:21:41;;;;;;;11.40;4.80;;;1.50;99.90;;;;;;4949759;28;20031;-59
2021/12/09 01:24:07;;;;;;;17.02;5.57;;;1.50;99.90;;;;;;4947614;28;20453;-61
2021/12/09 01:26:33;;;;;;;18.58;5.50;;;1.50;99.90;;;;;;4945010;28;20059;-60
2021/12/09 01:29:04;;;;;;;12.48;4.95;;;1.50;99.90;;;;;;4946084;28;20107;-59
2021/12/09 01:31:35;;;;;;;16.70;5.18;;;1.40;99.90;;;;;;4947514;28;20039;-59
2021/12/09 01:34:03;;;;;;;15.73;5.75;;;1.40;99.90;;;;;;4947150;28;20031;-58
2021/12/09 01:36:30;;;;;;;19.08;5.47;;;1.30;99.90;;;;;;4944471;28;20066;-59
2021/12/09 01:38:56;;;;;;;24.83;7.05;;;1.30;99.90;;;;;;4943987;28;20103;-59
2021/12/09 01:41:21;;;;;;;18.50;5.57;;;1.30;99.90;;;;;;4934657;28;20480;-58
2021/12/09 01:43:48;;;;;;;17.92;5.75;;;1.30;99.90;;;;;;4945715;28;20023;-59
2021/12/09 01:46:16;;;;;;;17.85;5.35;;;1.30;99.90;;;;;;4949447;28;20039;-60
2021/12/09 01:48:45;;;;;;;12.38;5.70;;;1.40;99.90;;;;;;4945693;28;20023;-59
2021/12/09 01:51:11;;;;;;;13.90;5.30;;;1.40;99.90;;;;;;4952449;28;20067;-58
2021/12/09 01:53:38;;;;;;;16.88;5.57;;;1.40;99.90;;;;;;4953655;28;20038;-61
2021/12/09 01:56:07;;;;;;;25.50;9.07;;;1.50;99.90;;;;;;4952051;28;20062;-59
2021/12/09 01:58:34;;;;;;;23.70;6.43;;;1.50;99.90;;;;;;4951997;28;20043;-60
2021/12/09 02:00:59;;;;;;;30.00;6.60;;;1.60;99.90;;;;;;4944154;28;20028;-52
2021/12/09 02:03:26;;;;;;;23.48;5.45;;;1.70;99.90;;;;;;4953668;28;20031;-59
2021/12/09 02:05:52;;;;;;;17.02;4.90;;;1.80;99.90;;;;;;4945728;28;20453;-59
2021/12/09 02:08:18;;;;;;;18.10;5.93;;;1.80;99.90;;;;;;4939840;29;20023;-58
2021/12/09 02:10:45;;;;;;;12.40;5.32;;;1.90;99.90;;;;;;4933573;28;20046;-58
2021/12/09 02:13:12;;;;;;;20.90;5.63;;;1.90;99.90;;;;;;4939762;28;20031;-59
2021/12/09 02:15:39;;;;;;;20.13;5.00;;;1.90;99.90;;;;;;4939644;28;20043;-59
2021/12/09 02:18:07;;;;;;;15.15;4.10;;;1.90;99.90;;;;;;4945596;28;20433;-60
2021/12/09 02:20:35;;;;;;;15.10;4.78;;;1.80;99.90;;;;;;4945305;28;20031;-60
2021/12/09 02:23:07;;;;;;;19.17;4.60;;;1.80;99.90;;;;;;4942702;28;20030;-59
2021/12/09 02:25:33;;;;;;;12.23;4.30;;;1.70;99.90;;;;;;4947457;28;20101;-59
2021/12/09 02:27:59;;;;;;;9.45;3.60;;;1.60;99.90;;;;;;4944482;28;20509;-59
2021/12/09 02:30:24;;;;;;;12.75;3.63;;;1.60;99.90;;;;;;4935465;29;20091;-60
2021/12/09 02:32:50;;;;;;;18.90;5.22;;;1.50;99.90;;;;;;4946175;28;20035;-58
2021/12/09 02:35:15;;;;;;;14.45;4.60;;;1.50;99.90;;;;;;4942116;29;20486;-59
2021/12/09 02:37:42;;;;;;;22.77;6.90;;;1.50;99.90;;;;;;4941464;28;20102;-59
2021/12/09 02:40:09;;;;;;;28.25;7.32;;;1.50;99.90;;;;;;4941020;28;20031;-59
2021/12/09 02:42:35;;;;;;;35.22;10.38;;;1.50;99.90;;;;;;4921219;28;20325;-58
2021/12/09 02:45:03;;;;;;;40.80;11.15;;;1.60;99.90;;;;;;4941308;28;20572;-59
2021/12/09 02:47:29;;;;;;;32.15;9.10;;;1.60;99.90;;;;;;4945161;28;20047;-59
2021/12/09 02:49:54;;;;;;;19.83;5.93;;;1.70;99.90;;;;;;4947933;28;20409;-59
2021/12/09 02:52:20;;;;;;;14.43;4.47;;;1.70;99.90;;;;;;4946440;29;20055;-60
2021/12/09 02:54:46;;;;;;;15.48;4.20;;;1.80;99.90;;;;;;4949822;28;20068;-59
2021/12/09 02:57:12;;;;;;;13.40;4.20;;;1.80;99.90;;;;;;4948797;28;20122;-59
2021/12/09 02:59:37;;;;;;;22.23;4.35;;;1.90;99.90;;;;;;4951717;28;20035;-60
2021/12/09 03:02:05;;;;;;;19.92;6.97;;;2.00;99.90;;;;;;4939292;28;20036;-59
2021/12/09 03:04:51;;;;;;;35.40;10.50;;;2.00;99.90;;;;;;4947493;29;20478;-59
2021/12/09 03:07:25;;;;;;;17.35;6.30;;;2.00;99.90;;;;;;4944876;28;20041;-59
2021/12/09 03:09:55;;;;;;;23.63;7.05;;;2.00;99.90;;;;;;4943110;28;20074;-59
2021/12/09 03:12:26;;;;;;;18.83;6.10;;;2.00;99.90;;;;;;4944884;29;20035;-59
2021/12/09 03:14:53;;;;;;;23.70;7.25;;;2.00;99.90;;;;;;4946523;28;20035;-58
2021/12/09 03:17:19;;;;;;;26.00;5.70;;;1.90;99.90;;;;;;4943828;29;20027;-60
2021/12/09 03:19:46;;;;;;;10.68;3.75;;;1.90;99.90;;;;;;4947123;28;20051;-59
2021/12/09 03:22:12;;;;;;;16.08;4.85;;;1.80;99.90;;;;;;4949504;28;20248;-57
2021/12/09 03:24:38;;;;;;;11.00;4.78;;;1.70;99.90;;;;;;4941041;28;20414;-60
2021/12/09 03:27:04;;;;;;;11.32;3.70;;;1.60;99.90;;;;;;4945294;28;20071;-60
2021/12/09 03:29:30;;;;;;;14.63;3.67;;;1.50;99.90;;;;;;4942270;28;20043;-60
2021/12/09 03:31:59;;;;;;;21.67;5.13;;;1.40;99.90;;;;;;4946988;28;20090;-60
2021/12/09 03:34:28;;;;;;;20.35;6.07;;;1.30;99.90;;;;;;4940855;28;20086;-60
2021/12/09 03:36:56;;;;;;;17.33;6.00;;;1.20;99.90;;;;;;4938451;29;20043;-59
2021/12/09 03:39:25;;;;;;;16.73;6.30;;;1.10;99.90;;;;;;4943373;29;20031;-60
2021/12/09 03:41:53;;;;;;;17.42;5.10;;;1.00;99.90;;;;;;4937564;28;20114;-55
2021/12/09 03:44:19;;;;;;;17.30;5.53;;;0.90;99.90;;;;;;4951301;28;20031;-57
2021/12/09 03:46:46;;;;;;;18.80;4.75;;;0.90;99.90;;;;;;4927646;29;20082;-58
2021/12/09 03:49:12;;;;;;;21.40;5.47;;;0.90;99.90;;;;;;4942258;28;20071;-59
2021/12/09 03:51:38;;;;;;;11.65;4.50;;;0.90;99.90;;;;;;4934766;29;20040;-57
2021/12/09 03:54:07;;;;;;;17.65;4.85;;;0.90;99.90;;;;;;4942791;28;20485;-56
2021/12/09 03:56:34;;;;;;;12.55;4.32;;;0.80;99.90;;;;;;4946785;28;20072;-60
2021/12/09 03:59:00;;;;;;;12.60;4.90;;;0.80;99.90;;;;;;4946532;28;20042;-53
2021/12/09 04:01:26;;;;;;;21.27;5.25;;;0.70;99.90;;;;;;4941298;29;20050;-60
2021/12/09 04:03:53;;;;;;;19.10;6.15;;;0.70;99.90;;;;;;4943283;29;20059;-60
2021/12/09 04:06:19;;;;;;;28.95;7.97;;;0.70;99.90;;;;;;4949126;28;20086;-60
2021/12/09 04:08:44;;;;;;;21.90;7.93;;;0.60;99.90;;;;;;4942893;29;20050;-60
2021/12/09 04:11:10;;;;;;;42.55;13.45;;;0.60;99.90;;;;;;4946346;29;20042;-60
2021/12/09 04:13:38;;;;;;;37.50;12.23;;;0.60;99.90;;;;;;4931693;29;20094;-58
2021/12/09 04:16:07;;;;;;;26.52;8.98;;;0.60;99.90;;;;;;4926934;28;20086;-53
2021/12/09 04:18:36;;;;;;;27.20;7.68;;;0.50;99.90;;;;;;4938073;29;20028;-57
2021/12/09 04:21:03;;;;;;;24.10;6.05;;;0.50;99.90;;;;;;4949455;28;20034;-53
2021/12/09 04:23:29;;;;;;;14.30;4.97;;;0.50;99.90;;;;;;4943031;28;20114;-52
2021/12/09 04:25:55;;;;;;;21.77;7.35;;;0.50;99.90;;;;;;4958439;28;20568;-59
2021/12/09 04:28:21;;;;;;;25.08;6.88;;;0.50;99.90;;;;;;4943903;29;20047;-59
2021/12/09 04:30:47;;;;;;;19.25;5.05;;;0.50;99.90;;;;;;4945637;29;20035;-60
2021/12/09 04:33:12;;;;;;;17.70;5.47;;;0.50;99.90;;;;;;4944816;29;20047;-59
2021/12/09 04:35:38;;;;;;;13.85;4.47;;;0.50;99.90;;;;;;4946321;29;20039;-54
2021/12/09 04:38:04;;;;;;;18.95;4.82;;;0.50;99.90;;;;;;4934508;29;20039;-59
2021/12/09 04:40:30;;;;;;;12.32;5.05;;;0.50;99.90;;;;;;4945430;28;20027;-53
2021/12/09 04:42:55;;;;;;;26.05;6.43;;;0.50;99.90;;;;;;4912757;29;20055;-59
2021/12/09 04:45:21;;;;;;;13.30;5.25;;;0.50;99.90;;;;;;4947167;28;20032;-59
2021/12/09 04:47:47;;;;;;;7.90;3.90;;;0.40;99.90;;;;;;4947689;29;20403;-58
2021/12/09 04:50:13;;;;;;;12.15;3.58;;;0.40;99.90;;;;;;4939550;28;20071;-60
2021/12/09 04:52:39;;;;;;;20.38;5.40;;;0.30;99.90;;;;;;4942569;29;20035;-59
2021/12/09 04:55:07;;;;;;;8.52;4.45;;;0.40;99.90;;;;;;4928898;29;20220;-60
2021/12/09 04:57:33;;;;;;;15.02;4.88;;;0.30;99.90;;;;;;4939517;29;20040;-59
2021/12/09 05:00:00;;;;;;;14.63;4.88;;;0.30;99.90;;;;;;4940335;28;20527;-60
2021/12/09 05:02:49;;;;;;;13.15;4.65;;;0.30;99.90;;;;;;4939736;29;20075;-59
2021/12/09 05:05:15;;;;;;;14.25;5.28;;;0.20;99.90;;;;;;4942379;28;20074;-59
2021/12/09 05:07:42;;;;;;;14.15;4.55;;;0.20;99.90;;;;;;4938701;29;20035;-60
2021/12/09 05:10:08;;;;;;;13.00;4.82;;;0.10;99.90;;;;;;4943769;28;20027;-60
2021/12/09 05:12:33;;;;;;;14.35;4.75;;;0.10;99.90;;;;;;4941910;28;20043;-59
2021/12/09 05:15:00;;;;;;;20.00;5.00;;;0.10;99.90;;;;;;4938766;29;20441;-57
2021/12/09 05:17:25;;;;;;;14.38;5.20;;;0.10;99.90;;;;;;4942489;28;20031;-58
2021/12/09 05:19:51;;;;;;;11.70;4.78;;;0.10;99.90;;;;;;4940451;28;20428;-60
2021/12/09 05:22:17;;;;;;;8.25;4.80;;;0.10;99.90;;;;;;4944433;29;20031;-58
2021/12/09 05:24:44;;;;;;;16.02;7.25;;;0.10;99.90;;;;;;4944047;29;20490;-59
2021/12/09 05:27:13;;;;;;;15.65;6.07;;;0.20;99.90;;;;;;4940346;29;20027;-59
2021/12/09 05:29:40;;;;;;;22.45;7.03;;;0.10;99.90;;;;;;4943591;28;20083;-60
2021/12/09 05:32:08;;;;;;;10.98;4.85;;;0.10;99.90;;;;;;4946820;28;20027;-60
2021/12/09 05:34:54;;;;;;;20.63;5.10;;;0.00;99.90;;;;;;4939255;29;20027;-60
2021/12/09 05:37:23;;;;;;;24.98;6.47;;;0.00;99.90;;;;;;4943538;29;20046;-60
2021/12/09 05:39:50;;;;;;;15.32;5.57;;;-0.10;99.90;;;;;;4938702;28;20525;-59
2021/12/09 05:42:18;;;;;;;13.93;5.50;;;-0.10;99.90;;;;;;4938369;29;20024;-60
2021/12/09 05:44:44;;;;;;;13.82;5.88;;;0.00;99.90;;;;;;4946109;28;20436;-58
2021/12/09 05:47:10;;;;;;;22.70;8.43;;;-0.10;99.90;;;;;;4942360;28;20031;-59
2021/12/09 05:49:38;;;;;;;26.13;12.57;;;-0.10;99.90;;;;;;4941752;28;20512;-59
2021/12/09 05:52:05;;;;;;;32.22;12.40;;;0.00;99.90;;;;;;4946083;28;20935;-59
2021/12/09 05:54:31;;;;;;;23.77;10.30;;;0.00;99.90;;;;;;4936946;28;20047;-60
2021/12/09 05:56:58;;;;;;;21.35;7.72;;;0.00;99.90;;;;;;4947509;28;20054;-59
2021/12/09 05:59:24;;;;;;;27.55;9.30;;;0.00;99.90;;;;;;4949310;28;20051;-58
2021/12/09 06:01:50;;;;;;;49.03;18.65;;;0.00;99.90;;;;;;4937853;28;20104;-59
2021/12/09 06:04:16;;;;;;;100.13;36.60;;;0.00;99.90;;;;;;4939134;28;20045;-59
2021/12/09 06:06:42;;;;;;;80.57;31.38;;;0.00;99.90;;;;;;4935417;28;20036;-59
2021/12/09 06:09:09;;;;;;;50.17;21.77;;;-0.10;99.90;;;;;;4945259;28;20071;-59
2021/12/09 06:11:35;;;;;;;40.25;16.63;;;-0.10;99.90;;;;;;4944421;28;20042;-60
2021/12/09 06:14:03;;;;;;;33.25;14.43;;;-0.10;99.90;;;;;;4948244;28;20397;-59
2021/12/09 06:16:28;;;;;;;30.50;12.57;;;-0.10;99.90;;;;;;4949972;28;20039;-60
2021/12/09 06:18:54;;;;;;;21.33;8.82;;;-0.10;99.90;;;;;;4942873;28;20453;-60
2021/12/09 06:21:22;;;;;;;26.50;7.68;;;-0.10;99.90;;;;;;4945896;28;20059;-58
2021/12/09 06:23:48;;;;;;;18.88;6.32;;;-0.10;99.90;;;;;;4946248;28;20547;-58
2021/12/09 06:26:14;;;;;;;13.52;5.25;;;-0.10;99.90;;;;;;4939362;29;20082;-59
2021/12/09 06:28:40;;;;;;;23.77;8.90;;;-0.20;99.90;;;;;;4943147;29;20159;-60
2021/12/09 06:31:06;;;;;;;34.80;10.48;;;-0.20;99.90;;;;;;4945277;28;20039;-59
2021/12/09 06:33:32;;;;;;;25.42;10.13;;;-0.10;99.90;;;;;;4947149;29;20043;-60
2021/12/09 06:35:59;;;;;;;34.38;10.88;;;-0.20;99.90;;;;;;4946865;29;20119;-58
2021/12/09 06:38:24;;;;;;;45.17;14.55;;;-0.20;99.90;;;;;;4946696;29;20027;-60
2021/12/09 06:40:50;;;;;;;63.38;19.13;;;-0.20;99.90;;;;;;4950800;29;20423;-59
2021/12/09 06:43:17;;;;;;;58.65;20.88;;;-0.20;99.90;;;;;;4946387;29;20589;-59
2021/12/09 06:45:43;;;;;;;36.20;14.40;;;-0.20;99.90;;;;;;4938874;28;20046;-60
2021/12/09 06:48:09;;;;;;;24.88;9.68;;;-0.10;99.90;;;;;;4949224;28;20118;-60
2021/12/09 06:50:36;;;;;;;22.83;8.13;;;-0.20;99.90;;;;;;4947063;28;20066;-60
2021/12/09 06:53:02;;;;;;;28.38;10.75;;;-0.20;99.90;;;;;;4947381;28;20480;-55
2021/12/09 06:55:28;;;;;;;30.42;12.13;;;-0.20;99.90;;;;;;4948190;28;20046;-60
2021/12/09 06:57:54;;;;;;;32.03;9.45;;;-0.20;99.90;;;;;;4941291;28;20027;-59
2021/12/09 07:00:28;;;;;;;29.50;11.23;;;-0.30;99.90;;;;;;4947784;28;20043;-60
2021/12/09 07:02:55;;;;;;;34.17;11.95;;;-0.30;99.90;;;;;;4949944;28;20107;-60
2021/12/09 07:05:22;;;;;;;28.73;12.02;;;-0.30;99.90;;;;;;4944339;29;20513;-60
2021/12/09 07:07:50;;;;;;;33.30;13.40;;;-0.30;99.90;;;;;;4949851;28;20540;-60
2021/12/09 07:10:17;;;;;;;24.85;10.10;;;-0.20;99.90;;;;;;4948006;28;20059;-59
2021/12/09 07:12:43;;;;;;;31.45;11.00;;;-0.30;99.90;;;;;;4940453;28;20121;-60
2021/12/09 07:15:10;;;;;;;41.60;13.43;;;-0.20;99.90;;;;;;4944132;29;20497;-59
2021/12/09 07:17:36;;;;;;;33.40;10.32;;;-0.20;99.90;;;;;;4941700;28;20046;-60
2021/12/09 07:20:05;;;;;;;32.55;9.48;;;-0.20;99.90;;;;;;4949242;29;20043;-59
2021/12/09 07:22:30;;;;;;;24.08;10.15;;;-0.30;99.90;;;;;;4938169;28;20036;-59
2021/12/09 07:24:56;;;;;;;62.08;23.25;;;-0.30;99.90;;;;;;4945167;28;20039;-56
2021/12/09 07:27:21;;;;;;;48.95;23.65;;;-0.30;99.90;;;;;;4949039;28;20043;-60
2021/12/09 07:29:47;;;;;;;35.15;20.23;;;-0.30;99.90;;;;;;4937793;28;20066;-60
2021/12/09 07:32:13;;;;;;;26.77;11.52;;;-0.30;99.90;;;;;;4947213;28;20039;-60
2021/12/09 07:34:39;;;;;;;28.27;9.52;;;-0.30;99.90;;;;;;4946825;29;20065;-60
2021/12/09 07:37:05;;;;;;;19.27;10.75;;;-0.30;99.90;;;;;;4944382;28;20031;-59
2021/12/09 07:39:32;;;;;;;23.73;10.18;;;-0.30;99.90;;;;;;4942928;28;20043;-59
2021/12/09 07:41:59;;;;;;;24.80;10.70;;;-0.30;99.90;;;;;;4943465;29;20027;-59
2021/12/09 07:44:26;;;;;;;33.83;14.82;;;-0.40;99.90;;;;;;4937314;29;21033;-60
2021/12/09 07:46:53;;;;;;;36.55;13.82;;;-0.30;99.90;;;;;;4942074;28;20078;-59
2021/12/09 07:49:20;;;;;;;38.03;15.52;;;-0.30;99.90;;;;;;4946507;28;20046;-60
2021/12/09 07:51:46;;;;;;;29.98;13.93;;;-0.40;99.90;;;;;;4940552;28;20486;-60
2021/12/09 07:54:12;;;;;;;31.95;12.20;;;-0.30;99.90;;;;;;4942935;28;20054;-59
2021/12/09 07:56:38;;;;;;;29.58;14.82;;;-0.30;99.90;;;;;;4948737;29;20043;-58
2021/12/09 07:59:03;;;;;;;39.75;19.02;;;-0.20;99.90;;;;;;4945267;28;20534;-58
2021/12/09 08:01:29;;;;;;;43.38;19.13;;;-0.20;99.90;;;;;;4948192;28;20090;-60
2021/12/09 08:03:56;;;;;;;39.15;16.88;;;-0.20;99.90;;;;;;4946058;29;20441;-59
2021/12/09 08:06:22;;;;;;;38.33;15.88;;;-0.20;99.90;;;;;;4939469;28;20039;-60
2021/12/09 08:08:48;;;;;;;36.28;13.77;;;-0.10;99.90;;;;;;4949458;28;20055;-60
2021/12/09 08:11:13;;;;;;;24.80;9.93;;;0.00;99.90;;;;;;4945395;29;20082;-60
2021/12/09 08:13:39;;;;;;;23.23;10.05;;;0.00;99.90;;;;;;4940944;29;20043;-59
2021/12/09 08:16:04;;;;;;;22.13;9.70;;;0.00;99.90;;;;;;4949375;28;20061;-58
2021/12/09 08:18:43;;;;;;;18.40;10.00;;;0.10;99.90;;;;;;4949806;29;20042;-60
2021/12/09 08:21:09;;;;;;;28.20;11.30;;;0.10;99.90;;;;;;4949164;28;20043;-59
2021/12/09 08:23:35;;;;;;;24.92;9.88;;;0.10;99.90;;;;;;4941080;28;20038;-60
2021/12/09 08:26:00;;;;;;;30.05;11.40;;;0.10;99.90;;;;;;4944298;28;20118;-59
2021/12/09 08:28:26;;;;;;;30.30;12.98;;;0.10;99.90;;;;;;4945649;29;20054;-60
2021/12/09 08:30:52;;;;;;;31.88;15.07;;;0.20;99.90;;;;;;4944746;28;20044;-59
2021/12/09 08:33:23;;;;;;;47.60;16.58;;;0.30;99.90;;;;;;4940979;28;20045;-60
2021/12/09 08:35:49;;;;;;;41.67;19.05;;;0.30;99.90;;;;;;4938327;28;20134;-60
2021/12/09 08:38:15;;;;;;;31.15;15.43;;;0.40;99.90;;;;;;4943686;29;20122;-61
2021/12/09 08:40:42;;;;;;;26.55;12.63;;;0.50;99.90;;;;;;4946064;29;20485;-60
2021/12/09 08:43:09;;;;;;;29.38;11.60;;;0.60;99.90;;;;;;4940014;29;20066;-60
2021/12/09 08:45:34;;;;;;;24.75;11.43;;;0.60;99.90;;;;;;4935179;29;20050;-60
2021/12/09 08:48:00;;;;;;;31.55;18.67;;;0.70;99.90;;;;;;4944149;28;20498;-60
2021/12/09 08:50:32;;;;;;;24.63;12.77;;;0.80;99.90;;;;;;4946617;29;21651;-60
2021/12/09 08:52:59;;;;;;;23.33;10.38;;;0.90;99.90;;;;;;4944288;28;20035;-60
2021/12/09 08:55:25;;;;;;;23.08;9.15;;;1.00;99.90;;;;;;4948952;28;20031;-60
2021/12/09 08:57:51;;;;;;;22.25;9.18;;;1.00;99.90;;;;;;4949704;28;20044;-59
2021/12/09 09:00:18;;;;;;;17.75;8.65;;;1.10;99.90;;;;;;4946047;28;20449;-60
2021/12/09 09:02:45;;;;;;;15.05;8.35;;;1.20;99.90;;;;;;4942367;28;20023;-60
2021/12/09 09:05:13;;;;;;;21.52;8.93;;;1.40;99.90;;;;;;4939272;29;20031;-60
2021/12/09 09:07:40;;;;;;;20.90;9.60;;;1.60;99.90;;;;;;4943525;29;20027;-60
2021/12/09 09:10:07;;;;;;;16.35;9.90;;;1.80;99.90;;;;;;4938525;28;20078;-60
2021/12/09 09:12:34;;;;;;;17.92;7.53;;;1.90;99.90;;;;;;4934575;29;20126;-60
2021/12/09 09:15:01;;;;;;;16.85;7.35;;;2.10;99.90;;;;;;4945444;28;20027;-55
2021/12/09 09:17:27;;;;;;;13.98;8.20;;;2.10;99.90;;;;;;4943294;29;20046;-59
2021/12/09 09:19:52;;;;;;;12.48;8.07;;;2.10;99.90;;;;;;4941234;29;20035;-60
2021/12/09 09:22:18;;;;;;;13.45;7.63;;;2.10;99.90;;;;;;4945194;29;20036;-60
2021/12/09 09:24:44;;;;;;;18.30;9.15;;;2.10;99.90;;;;;;4945261;28;20489;-60
2021/12/09 09:27:10;;;;;;;16.83;7.85;;;2.10;99.90;;;;;;4944934;28;20046;-60
2021/12/09 09:29:38;;;;;;;22.10;10.13;;;2.00;99.90;;;;;;4947414;29;20031;-60
2021/12/09 09:32:05;;;;;;;25.40;13.93;;;2.00;99.90;;;;;;4943932;29;20050;-61
2021/12/09 09:34:30;;;;;;;17.40;9.43;;;2.00;99.90;;;;;;4947507;28;20035;-58
2021/12/09 09:36:56;;;;;;;21.02;8.90;;;2.00;99.90;;;;;;4945613;28;20163;-60
2021/12/09 09:39:28;;;;;;;13.35;7.32;;;1.90;99.90;;;;;;4949130;28;20023;-60
2021/12/09 09:42:00;;;;;;;28.38;17.92;;;1.90;99.90;;;;;;4950379;28;20039;-58
2021/12/09 09:44:32;;;;;;;17.58;11.05;;;2.00;99.90;;;;;;4946930;28;20035;-60
2021/12/09 09:47:01;;;;;;;17.98;9.88;;;2.00;99.90;;;;;;4948255;28;20039;-60
2021/12/09 09:49:28;;;;;;;22.15;9.98;;;2.00;99.90;;;;;;4947503;28;20035;-60
2021/12/09 09:51:57;;;;;;;16.92;7.95;;;2.00;99.90;;;;;;4953055;28;20449;-60
2021/12/09 09:54:23;;;;;;;47.58;25.20;;;2.00;99.90;;;;;;4953275;28;20462;-58
2021/12/09 09:56:49;;;;;;;26.67;14.20;;;2.00;99.90;;;;;;4945660;28;20065;-60
2021/12/09 09:59:17;;;;;;;25.02;12.25;;;2.00;99.90;;;;;;4945675;28;20035;-59
2021/12/09 10:01:44;;;;;;;17.02;8.60;;;2.10;99.90;;;;;;4938909;29;20030;-59
2021/12/09 10:04:19;;;;;;;20.33;8.65;;;2.10;99.90;;;;;;4950461;28;20045;-60
2021/12/09 10:06:45;;;;;;;21.58;8.40;;;2.10;99.90;;;;;;4947527;28;20037;-59
2021/12/09 10:09:13;;;;;;;15.40;7.50;;;2.20;99.90;;;;;;4948424;28;20040;-60
2021/12/09 10:11:39;;;;;;;14.77;7.95;;;2.20;99.90;;;;;;4936067;29;20031;-61
2021/12/09 10:14:14;;;;;;;19.00;8.02;;;2.30;99.90;;;;;;4941306;28;20500;-61
2021/12/09 10:16:41;;;;;;;16.38;7.72;;;2.30;99.90;;;;;;4948808;28;20066;-58
2021/12/09 10:19:19;;;;;;;16.20;7.93;;;2.40;99.90;;;;;;4947099;29;20037;-60
2021/12/09 10:21:45;;;;;;;13.45;7.47;;;2.40;99.90;;;;;;4944508;29;20046;-59
2021/12/09 10:24:11;;;;;;;13.50;7.75;;;2.50;99.90;;;;;;4950510;28;20126;-60
2021/12/09 10:26:38;;;;;;;14.98;8.60;;;2.60;99.90;;;;;;4949913;28;20130;-59
2021/12/09 10:29:44;;;;;;;17.88;8.38;;;2.60;99.90;;;;;;4944737;29;20032;-59
2021/12/09 10:32:19;;;;;;;23.13;17.63;;;2.70;99.90;;;;;;4949651;29;20035;-61
2021/12/09 10:34:46;;;;;;;19.75;8.88;;;2.80;99.90;;;;;;4938615;29;20035;-59
2021/12/09 10:37:16;;;;;;;13.00;6.18;;;2.80;99.90;;;;;;4937992;28;20036;-61
2021/12/09 10:40:07;;;;;;;15.55;6.80;;;2.90;99.90;;;;;;4948257;29;20118;-61
2021/12/09 10:42:36;;;;;;;13.82;6.60;;;3.00;99.90;;;;;;4947374;28;20035;-60
2021/12/09 10:45:08;;;;;;;14.88;6.82;;;3.10;99.90;;;;;;4936505;28;20107;-60
2021/12/09 10:48:06;;;;;;;19.25;7.07;;;3.20;99.90;;;;;;4940135;29;20047;-59
2021/12/09 10:50:39;;;;;;;18.98;6.47;;;3.40;99.90;;;;;;4949342;29;20033;-60
2021/12/09 10:55:57;;;;;;;15.75;5.60;;;3.70;99.90;;;;;;4949631;29;20461;-59
2021/12/09 10:58:27;;;;;;;10.35;5.28;;;3.70;99.90;;;;;;4940104;29;20379;-60
2021/12/09 11:00:59;;;;;;;13.05;4.97;;;3.70;99.90;;;;;;4945497;28;20027;-60
2021/12/09 11:03:42;;;;;;;9.18;4.38;;;3.70;99.90;;;;;;4949451;28;20032;-59
2021/12/09 11:06:11;;;;;;;14.30;4.97;;;3.80;99.90;;;;;;4951568;29;20045;-59
2021/12/09 11:08:47;;;;;;;14.07;7.43;;;3.80;99.90;;;;;;4948061;29;20023;-58
2021/12/09 11:11:24;;;;;;;18.35;5.22;;;3.90;99.90;;;;;;4945390;29;20035;-58
2021/12/09 11:13:59;;;;;;;14.40;5.30;;;4.00;99.90;;;;;;4944724;29;20035;-59
2021/12/09 11:16:30;;;;;;;12.90;4.25;;;4.10;99.90;;;;;;4950305;29;20118;-58
2021/12/09 11:19:17;;;;;;;10.95;4.15;;;4.20;99.90;;;;;;4950953;29;20644;-59
2021/12/09 11:21:51;;;;;;;19.80;6.97;;;4.20;99.90;;;;;;4951990;28;20019;-60
2021/12/09 11:24:19;;;;;;;15.20;5.93;;;4.20;99.90;;;;;;4950975;28;20031;-59
2021/12/09 11:29:25;;;;;;;16.85;6.38;;;4.10;99.90;;;;;;4951157;28;20166;-59
2021/12/09 11:32:08;;;;;;;19.08;6.55;;;4.10;99.90;;;;;;4950821;28;20031;-59
2021/12/09 11:34:51;;;;;;;14.77;5.13;;;4.10;99.90;;;;;;4950729;29;20027;-60
2021/12/09 11:37:38;;;;;;;19.80;8.70;;;4.20;99.90;;;;;;4949529;29;20027;-59
2021/12/09 11:40:07;;;;;;;41.58;14.77;;;4.20;99.90;;;;;;4951040;28;20031;-60
2021/12/09 11:42:56;;;;;;;22.35;8.25;;;4.20;99.90;;;;;;4951207;29;20028;-58
2021/12/09 11:45:25;;;;;;;17.58;5.80;;;4.20;99.90;;;;;;4951239;29;20027;-58
2021/12/09 11:47:53;;;;;;;19.73;6.47;;;4.20;99.90;;;;;;4951175;29;20042;-60
2021/12/09 11:50:28;;;;;;;17.23;5.60;;;4.20;99.90;;;;;;4951942;28;20101;-59
2021/12/09 11:52:56;;;;;;;9.88;3.45;;;4.20;99.90;;;;;;4951592;28;20031;-59
2021/12/09 11:55:31;;;;;;;14.27;5.32;;;4.20;99.90;;;;;;4949815;28;20089;-60
2021/12/09 11:58:02;;;;;;;17.42;6.05;;;4.20;99.90;;;;;;4949241;29;20154;-59
2021/12/09 12:07:07;;;;;;;14.35;5.72;;;4.30;99.90;;;;;;4952246;29;20058;-60
2021/12/09 12:15:59;;;;;;;9.75;3.92;;;4.30;99.90;;;;;;4950940;29;20031;-60
2021/12/09 12:21:11;;;;;;;19.48;4.50;;;4.40;99.90;;;;;;4951903;29;20070;-60
2021/12/09 12:35:00;;;;;;;12.57;4.30;;;4.50;99.90;;;;;;4949069;29;20209;-60
2021/12/09 12:38:12;;;;;;;14.82;4.43;;;4.50;99.90;;;;;;4946201;28;20046;-60
2021/12/09 12:40:56;;;;;;;17.08;5.30;;;4.50;99.90;;;;;;4948316;28;20723;-61
2021/12/09 12:43:41;;;;;;;14.65;4.85;;;4.50;99.90;;;;;;4948219;28;20125;-60
2021/12/09 12:46:38;;;;;;;14.25;4.78;;;4.50;99.90;;;;;;4940323;29;20019;-60
2021/12/09 12:49:16;;;;;;;12.05;4.40;;;4.50;99.90;;;;;;4943082;28;20066;-60
2021/12/09 12:51:58;;;;;;;11.35;6.22;;;4.50;99.90;;;;;;4941180;28;20070;-59
2021/12/09 12:57:15;;;;;;;8.82;3.05;;;4.70;99.90;;;;;;4950587;29;20086;-55
2021/12/09 12:59:43;;;;;;;;;;;4.70;99.90;;;;;;4949227;28;20063;-60
2021/12/09 13:05:01;;;;;;;;;;;4.70;99.90;;;;;;4940347;28;20035;-59
2021/12/09 13:07:53;;;;;;;6.93;3.17;;;4.70;99.90;;;;;;4938353;28;19998;-59
2021/12/09 13:16:41;;;;;;;10.82;4.93;;;4.70;99.90;;;;;;4945343;28;20031;-60
2021/12/09 13:19:16;;;;;;;7.80;4.00;;;4.70;99.90;;;;;;4936892;29;20042;-61
2021/12/09 13:21:42;;;;;;;6.05;2.85;;;4.70;99.90;;;;;;4937370;29;20024;-61
2021/12/09 13:27:05;;;;;;;11.13;4.13;;;4.70;99.90;;;;;;4940845;29;20041;-60
2021/12/09 13:29:43;;;;;;;6.75;3.05;;;4.60;99.90;;;;;;4945436;28;20501;-61
2021/12/09 13:35:28;;;;;;;8.57;3.78;;;4.50;99.90;;;;;;4943781;28;20114;-59
2021/12/09 13:40:41;;;;;;;10.07;4.95;;;4.40;99.90;;;;;;4947880;28;20031;-60
2021/12/09 13:46:13;;;;;;;;;;;4.30;99.90;;;;;;4947089;28;20033;-60